Time;durP1;ratioP1;P1;durP2;ratioP2;P2;SDS_P1;SDS_P2;PMS_P1;PMS_P2;Temp;Humidity;BMP_temperature;BMP_pressure;BME280_temperature;BME280_humidity;BME280_pressure;Samples;Min_cycle;Max_cycle;Signal;HPM_P1;HPM_P2
2022/08/28 00:00:43;;;;;;;44.97;7.60;;;;;;;25.91;100.00;100631.28;4937265;29;20112;-76
2022/08/28 00:03:31;;;;;;;34.92;7.40;;;;;;;26.13;100.00;100631.28;4938640;29;20405;-76
2022/08/28 00:06:17;;;;;;;51.17;7.72;;;;;;;26.15;100.00;100627.47;4937341;29;20477;-76
2022/08/28 00:09:04;;;;;;;40.20;8.05;;;;;;;25.88;100.00;100637.75;4937456;29;20397;-76
2022/08/28 00:11:50;;;;;;;62.38;8.38;;;;;;;25.47;100.00;100629.53;4937973;29;20080;-76
2022/08/28 00:14:36;;;;;;;47.83;8.38;;;;;;;25.47;100.00;100629.53;4924487;29;20457;-76
2022/08/28 00:17:22;;;;;;;47.03;8.68;;;;;;;25.93;100.00;100635.56;4937420;29;20032;-76
2022/08/28 00:20:10;;;;;;;42.38;8.25;;;;;;;25.77;100.00;100639.63;4937319;29;20032;-76
2022/08/28 00:22:56;;;;;;;42.75;8.30;;;;;;;25.65;100.00;100638.81;4924375;29;20035;-74
2022/08/28 00:25:42;;;;;;;44.75;7.93;;;;;;;25.57;100.00;100640.38;4937515;29;20043;-76
2022/08/28 00:28:31;;;;;;;38.78;7.68;;;;;;;25.84;100.00;100640.84;4937576;29;20039;-75
2022/08/28 00:31:17;;;;;;;47.03;7.10;;;;;;;25.91;100.00;100637.50;4937664;29;20023;-76
2022/08/28 00:34:03;;;;;;;33.58;7.78;;;;;;;25.79;100.00;100638.50;4936723;29;20127;-76
2022/08/28 00:36:49;;;;;;;43.65;7.90;;;;;;;25.75;100.00;100636.19;4924341;29;20035;-76
2022/08/28 00:39:35;;;;;;;48.53;7.90;;;;;;;25.46;100.00;100632.31;4935790;29;20028;-77
2022/08/28 00:42:20;;;;;;;42.47;8.35;;;;;;;25.61;100.00;100634.66;4937199;29;20396;-76
2022/08/28 00:45:07;;;;;;;43.97;7.85;;;;;;;25.64;100.00;100638.91;4938530;29;20054;-77
2022/08/28 00:47:53;;;;;;;45.28;8.05;;;;;;;25.95;100.00;100643.50;4941154;29;20341;-76
2022/08/28 00:53:43;;;;;;;36.85;7.57;;;;;;;26.09;100.00;100643.25;4939646;29;20090;-75
2022/08/28 00:56:31;;;;;;;39.90;7.65;;;;;;;25.91;100.00;100632.16;4940816;29;20043;-76
2022/08/28 00:59:22;;;;;;;39.30;7.20;;;;;;;25.84;100.00;100638.16;4940024;29;20043;-75
2022/08/28 01:02:07;;;;;;;36.83;7.13;;;;;;;25.93;100.00;100637.41;4941051;29;20028;-76
2022/08/28 01:04:54;;;;;;;42.55;7.97;;;;;;;26.11;100.00;100641.25;4919985;29;20078;-75
2022/08/28 01:07:40;;;;;;;43.00;8.07;;;;;;;26.07;100.00;100639.81;4919983;29;20028;-76
2022/08/28 01:10:31;;;;;;;39.35;7.00;;;;;;;26.02;100.00;100644.72;4920829;29;20052;-76
2022/08/28 01:13:17;;;;;;;43.25;7.78;;;;;;;25.86;100.00;100645.09;4919986;29;20038;-75
2022/08/28 01:16:05;;;;;;;36.88;7.03;;;;;;;25.65;100.00;100644.16;4921272;29;20071;-76
2022/08/28 01:18:52;;;;;;;45.97;8.55;;;;;;;25.64;100.00;100649.66;4920469;29;20369;-75
2022/08/28 01:21:49;;;;;;;45.28;7.18;;;;;;;25.49;100.00;100651.75;4921011;29;20386;-76
2022/08/28 01:24:38;;;;;;;37.10;7.93;;;;;;;25.45;100.00;100647.59;4920333;29;20087;-76
2022/08/28 01:27:23;;;;;;;47.42;7.72;;;;;;;25.75;100.00;100653.16;4919756;29;20032;-75
2022/08/28 01:30:13;;;;;;;49.08;8.05;;;;;;;25.34;100.00;100644.91;4920778;29;20031;-75
2022/08/28 01:32:58;;;;;;;34.47;7.15;;;;;;;25.66;100.00;100650.38;4919838;29;20028;-76
2022/08/28 01:35:46;;;;;;;37.42;7.60;;;;;;;25.97;99.20;100655.84;4920704;29;20035;-76
2022/08/28 01:38:32;;;;;;;39.85;6.88;;;;;;;25.51;100.00;100652.44;4920722;29;20430;-76
2022/08/28 01:41:18;;;;;;;36.13;7.68;;;;;;;25.73;100.00;100647.09;4920644;29;20044;-75
2022/08/28 01:44:05;;;;;;;47.38;7.70;;;;;;;25.66;100.00;100647.69;4920310;29;20038;-76
2022/08/28 01:46:52;;;;;;;43.22;7.60;;;;;;;25.65;100.00;100648.66;4920264;29;20152;-75
2022/08/28 01:49:38;;;;;;;44.40;7.72;;;;;;;25.86;98.86;100646.91;4920211;29;20028;-75
2022/08/28 01:52:24;;;;;;;34.80;7.38;;;;;;;25.70;99.42;100647.31;4919918;29;20458;-75
2022/08/28 01:55:11;;;;;;;45.42;7.78;;;;;;;25.90;98.55;100645.69;4920782;29;20112;-76
2022/08/28 01:57:57;;;;;;;45.30;7.55;;;;;;;25.72;98.64;100648.03;4918689;29;20024;-76
2022/08/28 02:00:42;;;;;;;53.55;7.88;;;;;;;25.91;96.52;100639.34;4919254;29;20025;-75
2022/08/28 02:03:28;;;;;;;41.70;7.47;;;;;;;25.58;98.47;100637.56;4919690;29;20189;-76
2022/08/28 02:06:15;;;;;;;50.63;7.20;;;;;;;25.20;100.00;100630.84;4936575;29;20122;-75
2022/08/28 02:09:01;;;;;;;46.00;7.60;;;;;;;25.35;100.00;100635.88;4937371;29;20035;-75
2022/08/28 02:11:47;;;;;;;37.03;6.88;;;;;;;25.49;99.49;100632.97;4925991;29;20036;-76
2022/08/28 02:14:33;;;;;;;43.35;6.82;;;;;;;25.41;99.62;100637.22;4925132;29;20027;-75
2022/08/28 02:17:18;;;;;;;36.40;7.05;;;;;;;25.34;99.92;100634.19;4926070;29;20035;-76
2022/08/28 02:20:05;;;;;;;42.70;7.03;;;;;;;25.50;98.80;100639.16;4926137;29;20339;-76
2022/08/28 02:22:51;;;;;;;32.63;7.30;;;;;;;25.30;100.00;100635.41;4937851;29;20046;-76
2022/08/28 02:25:38;;;;;;;38.08;6.95;;;;;;;25.49;99.40;100641.00;4938153;29;20163;-76
2022/08/28 02:28:24;;;;;;;38.22;7.63;;;;;;;25.55;99.01;100636.97;4938389;29;20031;-76
2022/08/28 02:31:10;;;;;;;37.63;7.00;;;;;;;25.52;98.43;100648.78;4938643;29;20019;-75
2022/08/28 02:33:56;;;;;;;45.17;8.15;;;;;;;25.60;97.59;100648.19;4938745;29;20449;-75
2022/08/28 02:36:42;;;;;;;37.40;7.40;;;;;;;25.42;98.81;100647.84;4937420;29;20039;-75
2022/08/28 02:39:28;;;;;;;49.10;7.75;;;;;;;25.45;98.79;100654.78;4924077;29;20130;-75
2022/08/28 02:42:14;;;;;;;40.85;7.88;;;;;;;25.14;100.00;100650.09;4938498;29;20024;-75
2022/08/28 02:45:00;;;;;;;33.90;7.00;;;;;;;24.92;100.00;100647.38;4937770;29;20115;-76
2022/08/28 02:47:46;;;;;;;48.30;7.78;;;;;;;25.35;100.00;100640.41;4938473;29;20087;-75
2022/08/28 02:50:32;;;;;;;42.10;7.60;;;;;;;24.91;100.00;100643.00;4938435;29;20111;-76
2022/08/28 02:53:18;;;;;;;37.38;7.22;;;;;;;24.75;100.00;100650.53;4911885;29;20038;-76
2022/08/28 02:56:04;;;;;;;40.00;6.90;;;;;;;24.86;100.00;100656.75;4924972;29;20409;-76
2022/08/28 02:58:50;;;;;;;39.13;7.90;;;;;;;24.72;100.00;100651.63;4936718;29;20429;-75
2022/08/28 03:01:36;;;;;;;47.30;7.95;;;;;;;24.77;100.00;100659.28;4937913;29;20094;-75
2022/08/28 03:04:22;;;;;;;39.13;7.43;;;;;;;24.80;100.00;100661.75;4937367;29;20035;-76
2022/08/28 03:07:08;;;;;;;39.55;6.82;;;;;;;25.02;100.00;100665.31;4937239;29;20028;-76
2022/08/28 03:09:55;;;;;;;28.45;7.00;;;;;;;24.85;100.00;100670.28;4923629;29;20027;-76
2022/08/28 03:12:41;;;;;;;38.13;6.30;;;;;;;25.04;100.00;100667.88;4923685;29;20106;-76
2022/08/28 03:15:26;;;;;;;35.85;6.97;;;;;;;25.11;100.00;100675.31;4937020;29;20024;-75
2022/08/28 03:18:13;;;;;;;42.70;7.75;;;;;;;24.69;100.00;100681.31;4937811;29;20038;-76
2022/08/28 03:21:00;;;;;;;46.90;7.82;;;;;;;24.83;100.00;100682.94;4937671;29;20114;-77
2022/08/28 03:23:46;;;;;;;39.20;7.50;;;;;;;24.90;100.00;100671.63;4937637;29;20090;-75
2022/08/28 03:26:32;;;;;;;37.90;7.82;;;;;;;24.90;100.00;100681.47;4937481;29;20097;-76
2022/08/28 03:29:17;;;;;;;42.10;8.05;;;;;;;24.68;100.00;100689.47;4924665;29;20512;-76
2022/08/28 03:32:03;;;;;;;40.60;7.15;;;;;;;24.75;100.00;100685.38;4938163;29;20046;-76
2022/08/28 03:34:49;;;;;;;35.55;7.03;;;;;;;24.69;100.00;100692.03;4937214;29;20094;-76
2022/08/28 03:37:35;;;;;;;31.30;6.95;;;;;;;24.85;100.00;100695.25;4936069;29;20098;-76
2022/08/28 03:40:20;;;;;;;39.88;7.40;;;;;;;24.87;100.00;100697.81;4937314;29;20032;-76
2022/08/28 03:43:08;;;;;;;42.95;7.47;;;;;;;25.07;100.00;100695.31;4937159;29;20099;-76
2022/08/28 03:45:56;;;;;;;41.65;8.02;;;;;;;24.78;100.00;100693.16;4937155;29;20111;-75
2022/08/28 03:48:43;;;;;;;33.33;7.57;;;;;;;24.27;100.00;100697.06;4923483;29;20032;-76
2022/08/28 03:51:32;;;;;;;42.50;8.20;;;;;;;24.46;100.00;100698.22;4937021;29;20055;-76
2022/08/28 03:54:18;;;;;;;50.08;7.88;;;;;;;24.84;100.00;100698.06;4937757;29;20473;-76
2022/08/28 03:57:03;;;;;;;45.75;7.70;;;;;;;24.61;100.00;100701.63;4941053;29;20032;-78
2022/08/28 03:59:51;;;;;;;42.45;7.55;;;;;;;24.35;100.00;100700.84;4924318;29;20028;-75
2022/08/28 04:02:39;;;;;;;41.58;7.50;;;;;;;24.47;100.00;100702.63;4923342;29;20031;-76
2022/08/28 04:05:27;;;;;;;39.33;7.90;;;;;;;24.40;100.00;100704.06;4935471;29;20052;-76
2022/08/28 04:08:17;;;;;;;44.33;8.25;;;;;;;24.57;100.00;100700.97;4937110;29;20036;-76
2022/08/28 04:11:03;;;;;;;32.38;7.45;;;;;;;24.16;100.00;100699.66;4936900;29;20027;-76
2022/08/28 04:13:49;;;;;;;38.15;7.82;;;;;;;24.29;100.00;100701.31;4938088;29;20024;-76
2022/08/28 04:16:35;;;;;;;51.33;8.52;;;;;;;24.49;100.00;100699.81;4924210;29;20070;-76
2022/08/28 04:19:20;;;;;;;42.70;7.93;;;;;;;24.72;100.00;100712.38;4938022;29;20187;-76
2022/08/28 04:22:07;;;;;;;41.15;8.27;;;;;;;24.44;100.00;100702.88;4940881;29;20035;-76
2022/08/28 04:24:53;;;;;;;38.60;7.97;;;;;;;24.47;100.00;100699.94;4940918;29;20035;-76
2022/08/28 04:27:39;;;;;;;40.47;8.13;;;;;;;24.61;100.00;100710.53;4927236;29;20453;-76
2022/08/28 04:30:25;;;;;;;44.28;7.47;;;;;;;24.74;100.00;100708.63;4942002;29;20066;-75
2022/08/28 04:33:10;;;;;;;38.30;8.18;;;;;;;24.96;100.00;100710.53;4941178;29;20028;-76
2022/08/28 04:35:56;;;;;;;44.03;8.05;;;;;;;24.94;100.00;100710.63;4941006;29;20465;-76
2022/08/28 04:38:42;;;;;;;37.65;8.75;;;;;;;24.98;100.00;100714.78;4939334;29;20047;-75
2022/08/28 04:41:29;;;;;;;41.00;7.72;;;;;;;25.11;100.00;100714.72;4939408;29;20046;-76
2022/08/28 04:44:15;;;;;;;34.30;7.78;;;;;;;25.33;100.00;100726.38;4939038;29;20035;-76
2022/08/28 04:47:01;;;;;;;37.13;7.25;;;;;;;25.06;100.00;100715.06;4940866;29;20123;-76
2022/08/28 04:49:47;;;;;;;37.40;7.60;;;;;;;25.39;100.00;100717.81;4940741;29;20034;-76
2022/08/28 04:52:32;;;;;;;40.17;7.72;;;;;;;25.58;100.00;100728.81;4940522;29;20028;-76
2022/08/28 04:55:18;;;;;;;32.15;7.45;;;;;;;25.30;100.00;100726.59;4927157;29;20070;-76
2022/08/28 04:58:04;;;;;;;43.95;8.27;;;;;;;25.60;100.00;100726.84;4928779;29;20032;-76
2022/08/28 05:00:51;;;;;;;40.38;8.98;;;;;;;25.68;100.00;100721.72;4926456;29;20031;-76
2022/08/28 05:03:38;;;;;;;42.92;7.85;;;;;;;25.61;100.00;100728.59;4926279;29;20087;-76
2022/08/28 05:06:26;;;;;;;41.28;8.27;;;;;;;25.29;100.00;100732.94;4925566;29;20481;-76
2022/08/28 05:09:15;;;;;;;42.47;7.80;;;;;;;24.99;100.00;100737.09;4940884;29;20034;-76
2022/08/28 05:12:02;;;;;;;37.95;8.05;;;;;;;25.32;100.00;100735.34;4925837;29;20054;-75
2022/08/28 05:14:49;;;;;;;36.42;7.63;;;;;;;25.38;100.00;100728.66;4939656;29;20042;-75
2022/08/28 05:17:35;;;;;;;39.92;8.75;;;;;;;25.35;100.00;100743.19;4939886;29;20039;-75
2022/08/28 05:20:21;;;;;;;37.78;7.93;;;;;;;25.46;100.00;100745.00;4940163;29;20034;-75
2022/08/28 05:23:08;;;;;;;40.47;8.43;;;;;;;25.69;100.00;100741.38;4927139;29;20031;-75
2022/08/28 05:25:54;;;;;;;36.90;7.95;;;;;;;25.66;100.00;100741.63;4938626;29;20036;-75
2022/08/28 05:28:40;;;;;;;29.48;6.88;;;;;;;25.96;100.00;100745.41;4939476;29;20027;-75
2022/08/28 05:31:28;;;;;;;35.75;7.45;;;;;;;25.98;100.00;100748.84;4937951;29;20028;-75
2022/08/28 05:34:14;;;;;;;48.70;7.85;;;;;;;26.07;100.00;100752.59;4939171;29;20028;-75
2022/08/28 05:37:00;;;;;;;49.72;8.43;;;;;;;25.79;100.00;100743.22;4940324;29;20123;-75
2022/08/28 05:39:46;;;;;;;40.97;7.70;;;;;;;26.15;99.07;100747.47;4939928;29;20389;-76
2022/08/28 05:42:32;;;;;;;27.35;6.63;;;;;;;26.12;99.03;100748.56;4925736;29;20027;-75
2022/08/28 05:45:18;;;;;;;46.05;8.48;;;;;;;26.30;98.68;100746.22;4939553;29;20082;-76
2022/08/28 05:48:04;;;;;;;44.65;7.80;;;;;;;26.17;99.35;100753.59;4925606;29;20043;-75
2022/08/28 05:50:50;;;;;;;38.40;7.65;;;;;;;25.90;99.31;100755.78;4938217;29;20042;-76
2022/08/28 05:53:40;;;;;;;37.72;7.95;;;;;;;26.25;97.92;100757.38;4939342;29;20062;-76
2022/08/28 05:56:29;;;;;;;31.23;7.20;;;;;;;26.40;97.76;100753.41;4939294;29;20385;-76
2022/08/28 05:59:15;;;;;;;35.10;7.13;;;;;;;26.72;95.30;100754.31;4939008;29;20437;-76
2022/08/28 06:02:04;;;;;;;34.70;8.20;;;;;;;26.71;95.70;100768.75;4938982;29;20139;-76
2022/08/28 06:04:50;;;;;;;35.17;7.82;;;;;;;26.73;95.79;100760.56;4938298;29;20118;-76
2022/08/28 06:07:35;;;;;;;37.95;7.30;;;;;;;27.11;92.71;100767.09;4939318;29;20031;-75
2022/08/28 06:10:21;;;;;;;30.25;6.85;;;;;;;27.02;92.74;100772.41;4938969;29;20360;-75
2022/08/28 06:13:07;;;;;;;43.55;7.78;;;;;;;27.07;91.85;100762.97;4938407;29;20023;-76
2022/08/28 06:15:53;;;;;;;40.17;6.95;;;;;;;27.05;91.42;100762.22;4925905;29;20028;-76
2022/08/28 06:18:39;;;;;;;36.55;7.78;;;;;;;27.08;90.49;100769.19;4938948;29;20099;-75
2022/08/28 06:21:25;;;;;;;28.20;6.75;;;;;;;26.84;93.62;100764.03;4938801;29;20031;-75
2022/08/28 06:24:12;;;;;;;31.40;8.05;;;;;;;26.90;94.63;100774.31;4938380;29;20376;-76
2022/08/28 06:26:58;;;;;;;38.55;7.50;;;;;;;27.28;93.78;100776.44;4937554;29;20036;-74
2022/08/28 06:29:44;;;;;;;37.83;8.07;;;;;;;27.19;91.92;100774.50;4938917;29;20372;-76
2022/08/28 06:32:30;;;;;;;39.88;7.65;;;;;;;27.08;94.00;100777.25;4938902;29;20429;-76
2022/08/28 06:35:16;;;;;;;36.97;7.43;;;;;;;26.83;95.76;100781.16;4937941;29;20036;-76
2022/08/28 06:38:02;;;;;;;40.25;7.53;;;;;;;27.21;93.10;100783.34;4937946;29;20031;-75
2022/08/28 06:40:53;;;;;;;39.08;7.70;;;;;;;27.51;90.59;100778.00;4938255;29;20053;-75
2022/08/28 06:43:39;;;;;;;33.83;7.97;;;;;;;27.48;91.13;100784.53;4937347;29;20453;-75
2022/08/28 06:46:26;;;;;;;42.88;7.95;;;;;;;27.55;91.72;100784.00;4938110;29;20047;-76
2022/08/28 06:49:13;;;;;;;31.20;7.15;;;;;;;27.40;92.56;100787.03;4937819;29;20028;-75
2022/08/28 06:51:59;;;;;;;28.95;7.45;;;;;;;27.69;91.14;100783.66;4937713;29;20031;-76
2022/08/28 06:54:45;;;;;;;32.97;7.85;;;;;;;27.82;90.93;100782.47;4937887;29;20457;-76
2022/08/28 06:57:31;;;;;;;37.10;7.15;;;;;;;27.35;94.31;100783.00;4937850;29;20042;-75
2022/08/28 07:00:17;;;;;;;29.92;7.40;;;;;;;27.55;92.96;100781.31;4938228;29;20087;-75
2022/08/28 07:03:06;;;;;;;31.58;7.43;;;;;;;28.05;90.88;100781.31;4937980;29;20044;-76
2022/08/28 07:05:57;;;;;;;39.45;7.68;;;;;;;28.26;88.58;100779.38;4936328;29;20055;-76
2022/08/28 07:08:43;;;;;;;43.85;8.48;;;;;;;27.91;90.46;100781.66;4923871;29;20047;-75
2022/08/28 07:11:31;;;;;;;47.03;7.82;;;;;;;27.64;93.48;100789.41;4936449;29;20027;-76
2022/08/28 07:14:16;;;;;;;40.17;7.10;;;;;;;27.58;92.74;100784.56;4937832;29;20043;-76
2022/08/28 07:17:02;;;;;;;32.05;7.32;;;;;;;28.47;89.25;100779.31;4924618;29;20361;-76
2022/08/28 07:19:48;;;;;;;31.27;6.63;;;;;;;28.72;85.50;100790.44;4937634;29;20118;-76
2022/08/28 07:22:34;;;;;;;29.90;7.28;;;;;;;28.96;85.42;100782.78;4937287;29;20032;-76
2022/08/28 07:25:20;;;;;;;27.83;7.15;;;;;;;29.29;82.77;100785.03;4938112;29;20496;-76
2022/08/28 07:28:07;;;;;;;46.55;8.18;;;;;;;28.78;83.79;100781.78;4937408;29;20416;-77
2022/08/28 07:31:03;;;;;;;29.90;7.05;;;;;;;29.08;83.62;100781.66;4937765;29;20376;-75
2022/08/28 07:33:49;;;;;;;39.85;7.65;;;;;;;29.51;81.54;100784.75;4937579;29;20031;-75
2022/08/28 07:36:35;;;;;;;27.80;6.85;;;;;;;29.65;78.37;100781.59;4936642;29;20027;-76
2022/08/28 07:39:21;;;;;;;31.50;7.95;;;;;;;29.80;78.03;100779.28;4924244;29;20032;-76
2022/08/28 07:42:06;;;;;;;28.50;7.50;;;;;;;29.86;77.58;100782.22;4937983;29;20151;-75
2022/08/28 07:44:53;;;;;;;38.60;7.43;;;;;;;30.05;77.19;100782.16;4937206;29;20028;-77
2022/08/28 07:47:40;;;;;;;32.33;7.22;;;;;;;30.16;75.72;100776.59;4937683;29;20040;-76
2022/08/28 07:50:26;;;;;;;28.80;6.90;;;;;;;30.53;72.78;100776.50;4937809;29;20346;-77
2022/08/28 07:53:12;;;;;;;33.28;7.20;;;;;;;30.38;74.41;100778.88;4937696;29;20478;-76
2022/08/28 07:55:58;;;;;;;42.15;8.27;;;;;;;30.94;71.21;100781.38;4940711;29;20035;-77
2022/08/28 07:58:44;;;;;;;33.22;7.28;;;;;;;31.15;69.89;100782.72;4941620;29;20475;-76
2022/08/28 08:01:30;;;;;;;32.40;7.63;;;;;;;31.25;68.31;100782.69;4940288;29;20373;-76
2022/08/28 08:04:18;;;;;;;36.95;7.05;;;;;;;31.20;65.82;100780.44;4940868;29;20457;-77
2022/08/28 08:07:05;;;;;;;34.45;7.68;;;;;;;31.52;64.93;100782.56;4942497;29;20386;-76
2022/08/28 08:09:51;;;;;;;25.08;6.90;;;;;;;31.55;65.07;100784.09;4942867;29;20027;-75
2022/08/28 08:12:38;;;;;;;38.67;6.65;;;;;;;32.28;62.53;100773.50;4950648;29;20056;-75
2022/08/28 08:15:23;;;;;;;28.40;6.60;;;;;;;32.71;61.27;100780.63;4951350;29;20034;-76
2022/08/28 08:18:09;;;;;;;34.53;8.05;;;;;;;32.74;59.65;100786.53;4938322;29;20031;-74
2022/08/28 08:20:55;;;;;;;33.03;7.07;;;;;;;32.14;62.54;100776.00;4948819;29;20034;-75
2022/08/28 08:23:41;;;;;;;34.67;7.85;;;;;;;32.61;60.19;100780.75;4950237;29;20063;-75
2022/08/28 08:26:28;;;;;;;23.67;6.93;;;;;;;33.02;58.45;100773.56;4946996;29;20027;-77
2022/08/28 08:29:14;;;;;;;44.40;6.93;;;;;;;33.18;56.99;100776.28;4942365;29;20034;-76
2022/08/28 08:32:04;;;;;;;30.15;6.97;;;;;;;32.90;59.47;100780.34;4940959;29;20027;-75
2022/08/28 08:34:53;;;;;;;41.33;8.68;;;;;;;33.63;53.36;100785.59;4930815;29;20039;-75
2022/08/28 08:37:38;;;;;;;32.88;8.90;;;;;;;33.97;53.10;100782.66;4949799;29;20111;-75
2022/08/28 08:40:24;;;;;;;32.28;7.60;;;;;;;34.40;51.75;100784.91;4941747;29;20051;-76
2022/08/28 08:43:12;;;;;;;31.90;7.63;;;;;;;34.61;49.04;100776.94;4941232;29;20019;-76
2022/08/28 08:45:58;;;;;;;31.58;7.15;;;;;;;34.76;48.03;100786.03;4940184;29;20429;-77
2022/08/28 08:48:45;;;;;;;23.60;6.60;;;;;;;35.25;45.55;100781.94;4927637;29;20373;-77
2022/08/28 08:51:40;;;;;;;38.47;7.63;;;;;;;34.28;47.88;100781.66;4927413;29;20098;-77
2022/08/28 08:54:26;;;;;;;33.13;7.88;;;;;;;35.08;46.31;100774.94;4940745;29;20070;-76
2022/08/28 08:57:13;;;;;;;31.30;10.05;;;;;;;34.84;45.56;100772.41;4940465;29;20381;-76
2022/08/28 09:00:02;;;;;;;33.90;10.82;;;;;;;35.37;44.93;100772.34;4941262;29;20346;-76
2022/08/28 09:03:00;;;;;;;33.75;8.50;;;;;;;34.74;44.58;100769.88;4939975;29;20040;-77
2022/08/28 09:05:52;;;;;;;28.48;7.32;;;;;;;34.92;44.38;100781.34;4940478;29;20058;-76
2022/08/28 09:08:44;;;;;;;32.90;7.82;;;;;;;34.91;45.25;100773.34;4940496;29;20131;-77
2022/08/28 09:11:59;;;;;;;39.17;7.05;;;;;;;35.21;43.58;100769.72;4940037;29;20496;-76
2022/08/28 09:15:04;;;;;;;33.83;7.70;;;;;;;35.24;43.97;100766.63;4921559;29;20049;-76
2022/08/28 09:17:54;;;;;;;39.58;8.88;;;;;;;35.20;41.69;100763.41;4941298;29;20401;-76
2022/08/28 09:20:40;;;;;;;32.78;6.65;;;;;;;34.55;42.66;100764.06;4938908;29;20449;-76
2022/08/28 09:23:27;;;;;;;35.22;7.10;;;;;;;35.41;39.29;100770.06;4940570;29;20035;-76
2022/08/28 09:26:21;;;;;;;34.28;7.13;;;;;;;35.18;39.04;100765.50;4939571;29;20034;-76
2022/08/28 09:29:15;;;;;;;34.28;6.93;;;;;;;35.32;39.18;100771.19;4927487;29;20027;-76
2022/08/28 09:32:32;;;;;;;32.25;6.43;;;;;;;35.03;39.74;100763.72;4940536;29;20110;-77
2022/08/28 09:35:30;;;;;;;33.17;6.50;;;;;;;35.45;38.61;100766.81;4925884;29;20441;-77
2022/08/28 09:38:20;;;;;;;28.02;6.55;;;;;;;35.38;38.34;100765.84;4939588;29;20028;-77
2022/08/28 09:44:15;;;;;;;34.22;6.55;;;;;;;35.25;38.81;100758.25;4939676;29;20058;-76
2022/08/28 09:47:01;;;;;;;32.33;7.28;;;;;;;35.43;38.29;100759.84;4938282;29;20028;-76
2022/08/28 09:49:47;;;;;;;23.75;5.82;;;;;;;35.64;36.46;100755.38;4938928;29;20040;-76
2022/08/28 09:52:33;;;;;;;20.80;6.07;;;;;;;35.37;37.04;100753.25;4926705;29;20028;-76
2022/08/28 09:55:28;;;;;;;25.63;6.00;;;;;;;35.30;35.99;100755.00;4938306;29;20039;-76
2022/08/28 09:58:14;;;;;;;29.05;6.38;;;;;;;35.16;36.19;100755.81;4938980;29;20041;-77
2022/08/28 10:01:14;;;;;;;36.45;6.25;;;;;;;34.81;36.70;100749.13;4938508;29;20350;-76
2022/08/28 10:04:18;;;;;;;32.03;6.68;;;;;;;35.33;37.42;100749.19;4939628;29;20051;-76
2022/08/28 10:07:35;;;;;;;26.58;5.22;;;;;;;35.00;36.89;100740.44;4918823;29;20075;-77
2022/08/28 10:10:31;;;;;;;19.98;5.07;;;;;;;35.10;35.08;100737.44;4920360;29;20063;-77
2022/08/28 10:13:34;;;;;;;25.55;5.63;;;;;;;35.44;36.57;100737.84;4906700;29;20036;-76
2022/08/28 10:16:45;;;;;;;18.88;4.97;;;;;;;35.78;33.76;100734.59;4919642;29;20028;-77
2022/08/28 10:20:00;;;;;;;16.58;4.88;;;;;;;34.93;34.24;100733.19;4920084;29;20032;-77
2022/08/28 10:23:07;;;;;;;17.33;4.85;;;;;;;35.67;34.02;100724.16;4919634;29;20027;-76
2022/08/28 10:26:02;;;;;;;20.65;5.50;;;;;;;35.43;33.10;100727.97;4919835;29;20032;-76
2022/08/28 10:29:02;;;;;;;17.42;5.18;;;;;;;35.69;33.58;100728.38;4918597;29;20469;-76
2022/08/28 10:31:57;;;;;;;21.73;5.38;;;;;;;35.62;34.02;100726.56;4906604;29;20350;-77
2022/08/28 10:34:52;;;;;;;21.88;5.45;;;;;;;35.54;33.84;100724.78;4906543;29;20032;-77
2022/08/28 10:38:08;;;;;;;24.92;5.28;;;;;;;35.32;33.18;100720.25;4918476;29;20363;-76
2022/08/28 10:41:11;;;;;;;20.33;5.35;;;;;;;36.16;33.91;100719.81;4918185;29;20450;-76
2022/08/28 10:44:00;;;;;;;16.95;5.10;;;;;;;35.67;32.70;100715.97;4919264;29;20071;-77
2022/08/28 10:46:54;;;;;;;21.35;4.43;;;;;;;35.97;32.51;100712.22;4919101;29;20035;-76
2022/08/28 10:49:43;;;;;;;21.27;5.40;;;;;;;35.44;32.37;100716.06;4919215;29;20028;-77
2022/08/28 10:52:34;;;;;;;18.85;4.85;;;;;;;35.94;32.31;100713.44;4919587;29;20067;-77
2022/08/28 10:55:34;;;;;;;20.27;5.22;;;;;;;36.26;31.86;100715.78;4919262;29;20024;-76
2022/08/28 10:58:22;;;;;;;21.17;4.70;;;;;;;36.36;31.71;100713.56;4918372;29;20039;-77
2022/08/28 11:01:16;;;;;;;23.92;5.32;;;;;;;36.69;31.62;100709.34;4919322;29;20365;-77
2022/08/28 11:04:08;;;;;;;19.75;5.03;;;;;;;37.01;30.80;100716.16;4918875;29;20123;-76
2022/08/28 11:07:07;;;;;;;31.15;5.25;;;;;;;36.45;31.73;100700.66;4919137;29;20063;-76
2022/08/28 11:09:54;;;;;;;19.83;5.18;;;;;;;36.71;31.72;100711.88;4919085;29;20398;-76
2022/08/28 11:12:42;;;;;;;21.42;5.03;;;;;;;35.79;30.76;100703.59;4893205;29;20024;-76
2022/08/28 11:15:27;;;;;;;21.60;5.15;;;;;;;35.62;31.42;100702.03;4918367;29;20464;-77
2022/08/28 11:18:14;;;;;;;19.45;4.50;;;;;;;36.64;30.71;100703.59;4918837;29;20175;-75
2022/08/28 11:21:18;;;;;;;16.58;4.95;;;;;;;36.98;29.84;100703.75;4918835;29;20028;-76
2022/08/28 11:24:25;;;;;;;15.57;4.88;;;;;;;36.78;29.78;100701.84;4918686;29;20024;-76
2022/08/28 11:27:17;;;;;;;15.90;4.93;;;;;;;36.77;29.59;100706.50;4906678;29;20183;-76
2022/08/28 11:30:13;;;;;;;15.10;4.70;;;;;;;37.14;29.67;100702.63;4919003;29;20039;-77
2022/08/28 11:33:38;;;;;;;17.27;5.03;;;;;;;36.04;29.80;100702.25;4906038;29;20518;-77
2022/08/28 11:36:28;;;;;;;24.25;5.38;;;;;;;36.48;29.63;100695.63;4905957;29;20445;-76
2022/08/28 11:39:14;;;;;;;21.40;4.95;;;;;;;36.87;28.99;100696.06;4918514;29;20366;-77
2022/08/28 11:42:08;;;;;;;21.20;5.18;;;;;;;36.43;29.77;100686.38;4905819;29;20020;-77
2022/08/28 11:44:54;;;;;;;15.75;5.57;;;;;;;36.96;29.71;100691.31;4905864;29;20095;-77
2022/08/28 11:47:43;;;;;;;25.45;5.40;;;;;;;36.30;29.83;100692.50;4918638;29;20054;-76
2022/08/28 11:50:49;;;;;;;16.55;4.70;;;;;;;37.23;29.39;100685.91;4919220;29;20028;-76
2022/08/28 11:53:53;;;;;;;21.25;5.05;;;;;;;36.72;29.35;100678.91;4918387;29;20453;-77
2022/08/28 11:56:49;;;;;;;23.60;5.30;;;;;;;37.73;28.66;100673.84;4918568;29;20028;-76
2022/08/28 11:59:53;;;;;;;20.70;5.05;;;;;;;37.76;28.63;100673.44;4918293;29;20039;-77
2022/08/28 12:02:38;;;;;;;19.25;5.15;;;;;;;37.03;28.65;100678.53;4917108;29;20060;-76
2022/08/28 12:05:30;;;;;;;16.70;4.40;;;;;;;37.70;27.94;100663.28;4909980;29;20056;-76
2022/08/28 12:08:45;;;;;;;22.98;4.55;;;;;;;38.02;28.55;100671.66;4918146;29;20457;-77
2022/08/28 12:11:39;;;;;;;20.27;4.88;;;;;;;38.04;28.52;100672.31;4917507;29;20546;-77
2022/08/28 12:14:26;;;;;;;17.83;4.68;;;;;;;38.49;28.37;100679.84;4918051;29;20453;-77
2022/08/28 12:17:16;;;;;;;19.75;5.05;;;;;;;38.11;28.55;100675.94;4916935;29;20462;-77
2022/08/28 12:20:23;;;;;;;22.58;5.18;;;;;;;38.08;28.10;100670.00;4917992;29;20095;-77
2022/08/28 12:23:39;;;;;;;15.45;4.78;;;;;;;37.44;28.48;100669.41;4917902;29;20050;-76
2022/08/28 12:26:34;;;;;;;22.85;4.97;;;;;;;37.38;28.61;100662.03;4918473;29;20028;-77
2022/08/28 12:29:31;;;;;;;19.25;5.10;;;;;;;37.60;28.79;100666.38;4918187;29;20461;-77
2022/08/28 12:32:29;;;;;;;14.68;4.63;;;;;;;38.16;28.29;100667.09;4918084;29;20047;-76
2022/08/28 12:35:21;;;;;;;19.27;5.22;;;;;;;37.73;27.81;100660.97;4918319;29;20028;-77
2022/08/28 12:38:08;;;;;;;22.50;5.50;;;;;;;37.82;27.67;100659.78;4916791;29;20060;-77
2022/08/28 12:40:54;;;;;;;22.95;4.90;;;;;;;37.75;28.95;100663.53;4918742;29;20442;-77
2022/08/28 12:43:44;;;;;;;16.92;5.03;;;;;;;38.17;28.55;100657.84;4920660;29;20040;-77
2022/08/28 12:46:35;;;;;;;19.23;4.95;;;;;;;38.13;28.07;100656.56;4921227;29;20032;-76
2022/08/28 12:49:39;;;;;;;19.20;5.38;;;;;;;37.43;29.62;100653.22;4921077;29;20084;-76
2022/08/28 12:52:25;;;;;;;27.33;5.65;;;;;;;37.85;29.19;100659.34;4922251;29;20039;-77
2022/08/28 12:55:11;;;;;;;23.50;4.97;;;;;;;37.64;29.54;100656.72;4921288;29;20043;-77
2022/08/28 12:57:57;;;;;;;18.25;4.88;;;;;;;37.39;29.60;100652.78;4921270;29;20098;-77
2022/08/28 13:00:55;;;;;;;19.48;5.20;;;;;;;37.36;29.59;100655.09;4920755;29;20031;-76